sensor_id;sensor_type;location;lat;lon;timestamp;temperature;humidity
4518;DHT22;2271;49.464;11.070;2023-03-01T00:01:40;2.00;99.90
4518;DHT22;2271;49.464;11.070;2023-03-01T00:04:05;1.90;99.90
4518;DHT22;2271;49.464;11.070;2023-03-01T00:06:31;1.90;99.90
4518;DHT22;2271;49.464;11.070;2023-03-01T00:08:57;2.00;99.90
4518;DHT22;2271;49.464;11.070;2023-03-01T00:11:27;2.10;99.90
4518;DHT22;2271;49.464;11.070;2023-03-01T00:13:56;2.20;99.90
4518;DHT22;2271;49.464;11.070;2023-03-01T00:16:28;2.20;99.90
4518;DHT22;2271;49.464;11.070;2023-03-01T00:18:54;2.10;99.90
4518;DHT22;2271;49.464;11.070;2023-03-01T00:21:21;1.90;99.90
4518;DHT22;2271;49.464;11.070;2023-03-01T00:23:47;2.10;99.90
4518;DHT22;2271;49.464;11.070;2023-03-01T00:26:16;2.00;99.90
4518;DHT22;2271;49.464;11.070;2023-03-01T00:28:42;2.10;99.90
4518;DHT22;2271;49.464;11.070;2023-03-01T00:31:10;2.10;99.90
4518;DHT22;2271;49.464;11.070;2023-03-01T00:33:36;2.30;99.90
4518;DHT22;2271;49.464;11.070;2023-03-01T00:36:03;2.30;99.90
4518;DHT22;2271;49.464;11.070;2023-03-01T00:38:29;2.30;99.90
4518;DHT22;2271;49.464;11.070;2023-03-01T00:40:54;2.30;99.90
4518;DHT22;2271;49.464;11.070;2023-03-01T00:43:20;2.30;99.90
4518;DHT22;2271;49.464;11.070;2023-03-01T00:45:46;2.20;99.90
4518;DHT22;2271;49.464;11.070;2023-03-01T00:48:12;2.20;99.90
4518;DHT22;2271;49.464;11.070;2023-03-01T00:50:38;2.10;99.90
4518;DHT22;2271;49.464;11.070;2023-03-01T00:53:03;2.10;99.90
4518;DHT22;2271;49.464;11.070;2023-03-01T00:55:30;2.00;99.90
4518;DHT22;2271;49.464;11.070;2023-03-01T00:57:56;2.00;99.90
4518;DHT22;2271;49.464;11.070;2023-03-01T01:00:21;2.10;99.90
4518;DHT22;2271;49.464;11.070;2023-03-01T01:02:48;2.10;99.90
4518;DHT22;2271;49.464;11.070;2023-03-01T01:05:13;2.00;99.90
4518;DHT22;2271;49.464;11.070;2023-03-01T01:07:39;2.10;99.90
4518;DHT22;2271;49.464;11.070;2023-03-01T01:10:06;2.00;99.90
4518;DHT22;2271;49.464;11.070;2023-03-01T01:12:32;2.00;99.90
4518;DHT22;2271;49.464;11.070;2023-03-01T01:14:58;2.00;99.90
4518;DHT22;2271;49.464;11.070;2023-03-01T01:17:23;2.00;99.90
4518;DHT22;2271;49.464;11.070;2023-03-01T01:19:49;2.00;99.90
4518;DHT22;2271;49.464;11.070;2023-03-01T01:22:15;2.10;99.90
4518;DHT22;2271;49.464;11.070;2023-03-01T01:24:40;2.00;99.90
4518;DHT22;2271;49.464;11.070;2023-03-01T01:27:06;1.90;99.90
4518;DHT22;2271;49.464;11.070;2023-03-01T01:29:32;1.90;99.90
4518;DHT22;2271;49.464;11.070;2023-03-01T01:31:58;2.00;99.90
4518;DHT22;2271;49.464;11.070;2023-03-01T01:34:24;1.90;99.90
4518;DHT22;2271;49.464;11.070;2023-03-01T01:36:51;1.90;99.90
4518;DHT22;2271;49.464;11.070;2023-03-01T01:39:20;2.00;99.90
4518;DHT22;2271;49.464;11.070;2023-03-01T01:41:46;1.90;99.90
4518;DHT22;2271;49.464;11.070;2023-03-01T01:44:25;1.90;99.90
4518;DHT22;2271;49.464;11.070;2023-03-01T01:47:20;2.00;99.90
4518;DHT22;2271;49.464;11.070;2023-03-01T01:49:50;1.90;99.90
4518;DHT22;2271;49.464;11.070;2023-03-01T01:52:27;1.90;99.90
4518;DHT22;2271;49.464;11.070;2023-03-01T01:54:57;1.90;99.90
4518;DHT22;2271;49.464;11.070;2023-03-01T01:57:33;1.90;99.90
4518;DHT22;2271;49.464;11.070;2023-03-01T02:00:05;1.90;99.90
4518;DHT22;2271;49.464;11.070;2023-03-01T02:02:32;2.00;99.90
4518;DHT22;2271;49.464;11.070;2023-03-01T02:05:09;1.90;99.90
4518;DHT22;2271;49.464;11.070;2023-03-01T02:07:38;1.90;99.90
4518;DHT22;2271;49.464;11.070;2023-03-01T02:10:05;1.90;99.90
4518;DHT22;2271;49.464;11.070;2023-03-01T02:12:32;1.90;99.90
4518;DHT22;2271;49.464;11.070;2023-03-01T02:14:58;1.90;99.90
4518;DHT22;2271;49.464;11.070;2023-03-01T02:17:23;1.90;99.90
4518;DHT22;2271;49.464;11.070;2023-03-01T02:22:24;1.80;99.90
4518;DHT22;2271;49.464;11.070;2023-03-01T02:28:04;1.70;99.90
4518;DHT22;2271;49.464;11.070;2023-03-01T02:30:33;1.60;99.90
4518;DHT22;2271;49.464;11.070;2023-03-01T02:33:00;1.50;99.90
4518;DHT22;2271;49.464;11.070;2023-03-01T02:35:38;1.40;99.90
4518;DHT22;2271;49.464;11.070;2023-03-01T02:38:06;1.30;99.90
4518;DHT22;2271;49.464;11.070;2023-03-01T02:40:34;1.50;99.90
4518;DHT22;2271;49.464;11.070;2023-03-01T02:43:02;1.50;99.90
4518;DHT22;2271;49.464;11.070;2023-03-01T02:45:29;1.60;99.90
4518;DHT22;2271;49.464;11.070;2023-03-01T02:47:56;1.50;99.90
4518;DHT22;2271;49.464;11.070;2023-03-01T02:50:43;1.50;99.90
4518;DHT22;2271;49.464;11.070;2023-03-01T02:53:19;1.60;99.90
4518;DHT22;2271;49.464;11.070;2023-03-01T02:55:47;1.60;99.90
4518;DHT22;2271;49.464;11.070;2023-03-01T02:58:13;1.70;99.90
4518;DHT22;2271;49.464;11.070;2023-03-01T03:00:42;1.80;99.90
4518;DHT22;2271;49.464;11.070;2023-03-01T03:03:20;1.80;99.90
4518;DHT22;2271;49.464;11.070;2023-03-01T03:05:48;1.90;99.90
4518;DHT22;2271;49.464;11.070;2023-03-01T03:08:14;1.80;99.90
4518;DHT22;2271;49.464;11.070;2023-03-01T03:10:49;1.80;99.90
4518;DHT22;2271;49.464;11.070;2023-03-01T03:13:15;1.80;99.90
4518;DHT22;2271;49.464;11.070;2023-03-01T03:15:41;1.80;99.90
4518;DHT22;2271;49.464;11.070;2023-03-01T03:18:11;1.80;99.90
4518;DHT22;2271;49.464;11.070;2023-03-01T03:20:37;1.70;99.90
4518;DHT22;2271;49.464;11.070;2023-03-01T03:23:04;1.70;99.90
4518;DHT22;2271;49.464;11.070;2023-03-01T03:25:30;1.60;99.90
4518;DHT22;2271;49.464;11.070;2023-03-01T03:27:56;1.70;99.90
4518;DHT22;2271;49.464;11.070;2023-03-01T03:30:26;1.80;99.90
4518;DHT22;2271;49.464;11.070;2023-03-01T03:32:52;1.70;99.90
4518;DHT22;2271;49.464;11.070;2023-03-01T03:35:24;1.70;99.90
4518;DHT22;2271;49.464;11.070;2023-03-01T03:37:51;1.70;99.90
4518;DHT22;2271;49.464;11.070;2023-03-01T03:40:36;1.70;99.90
4518;DHT22;2271;49.464;11.070;2023-03-01T03:43:03;1.80;99.90
4518;DHT22;2271;49.464;11.070;2023-03-01T03:45:29;1.90;99.90
4518;DHT22;2271;49.464;11.070;2023-03-01T03:47:55;1.90;99.90
4518;DHT22;2271;49.464;11.070;2023-03-01T03:50:20;1.90;99.90
4518;DHT22;2271;49.464;11.070;2023-03-01T03:52:46;1.90;99.90
4518;DHT22;2271;49.464;11.070;2023-03-01T03:55:12;1.80;99.90
4518;DHT22;2271;49.464;11.070;2023-03-01T03:57:38;1.80;99.90
4518;DHT22;2271;49.464;11.070;2023-03-01T04:00:06;1.60;99.90
4518;DHT22;2271;49.464;11.070;2023-03-01T04:02:39;1.60;99.90
4518;DHT22;2271;49.464;11.070;2023-03-01T04:05:05;1.60;99.90
4518;DHT22;2271;49.464;11.070;2023-03-01T04:07:30;1.70;99.90
4518;DHT22;2271;49.464;11.070;2023-03-01T04:09:56;1.60;99.90
4518;DHT22;2271;49.464;11.070;2023-03-01T04:12:22;1.60;99.90
4518;DHT22;2271;49.464;11.070;2023-03-01T04:14:48;1.70;99.90
4518;DHT22;2271;49.464;11.070;2023-03-01T04:17:14;1.70;99.90
4518;DHT22;2271;49.464;11.070;2023-03-01T04:19:39;1.80;99.90
4518;DHT22;2271;49.464;11.070;2023-03-01T04:22:05;1.80;99.90
4518;DHT22;2271;49.464;11.070;2023-03-01T04:24:35;1.70;99.90
4518;DHT22;2271;49.464;11.070;2023-03-01T04:27:01;1.80;99.90
4518;DHT22;2271;49.464;11.070;2023-03-01T04:29:27;1.80;99.90
4518;DHT22;2271;49.464;11.070;2023-03-01T04:31:52;1.70;99.90
4518;DHT22;2271;49.464;11.070;2023-03-01T04:34:18;1.70;99.90
4518;DHT22;2271;49.464;11.070;2023-03-01T04:36:44;1.60;99.90
4518;DHT22;2271;49.464;11.070;2023-03-01T04:39:10;1.60;99.90
4518;DHT22;2271;49.464;11.070;2023-03-01T04:41:39;1.60;99.90
4518;DHT22;2271;49.464;11.070;2023-03-01T04:44:06;1.60;99.90
4518;DHT22;2271;49.464;11.070;2023-03-01T04:46:32;1.70;99.90
4518;DHT22;2271;49.464;11.070;2023-03-01T04:48:57;1.70;99.90
4518;DHT22;2271;49.464;11.070;2023-03-01T04:51:23;1.70;99.90
4518;DHT22;2271;49.464;11.070;2023-03-01T04:53:49;1.70;99.90
4518;DHT22;2271;49.464;11.070;2023-03-01T04:56:15;1.70;99.90
4518;DHT22;2271;49.464;11.070;2023-03-01T04:58:43;1.70;99.90
4518;DHT22;2271;49.464;11.070;2023-03-01T05:01:15;1.70;99.90
4518;DHT22;2271;49.464;11.070;2023-03-01T05:03:49;1.60;99.90
4518;DHT22;2271;49.464;11.070;2023-03-01T05:06:16;1.50;99.90
4518;DHT22;2271;49.464;11.070;2023-03-01T05:08:43;1.50;99.90
4518;DHT22;2271;49.464;11.070;2023-03-01T05:11:10;1.40;99.90
4518;DHT22;2271;49.464;11.070;2023-03-01T05:13:37;1.40;99.90
4518;DHT22;2271;49.464;11.070;2023-03-01T05:16:04;1.40;99.90
4518;DHT22;2271;49.464;11.070;2023-03-01T05:18:32;1.40;99.90
4518;DHT22;2271;49.464;11.070;2023-03-01T05:21:10;1.40;99.90
4518;DHT22;2271;49.464;11.070;2023-03-01T05:23:36;1.40;99.90
4518;DHT22;2271;49.464;11.070;2023-03-01T05:26:04;1.40;99.90
4518;DHT22;2271;49.464;11.070;2023-03-01T05:28:30;1.30;99.90
4518;DHT22;2271;49.464;11.070;2023-03-01T05:30:56;1.10;99.90
4518;DHT22;2271;49.464;11.070;2023-03-01T05:33:23;1.00;99.90
4518;DHT22;2271;49.464;11.070;2023-03-01T05:35:49;0.90;99.90
4518;DHT22;2271;49.464;11.070;2023-03-01T05:38:16;0.70;99.90
4518;DHT22;2271;49.464;11.070;2023-03-01T05:40:43;0.60;99.90
4518;DHT22;2271;49.464;11.070;2023-03-01T05:43:09;0.60;99.90
4518;DHT22;2271;49.464;11.070;2023-03-01T05:45:37;0.60;99.90
4518;DHT22;2271;49.464;11.070;2023-03-01T05:48:03;0.60;99.90
4518;DHT22;2271;49.464;11.070;2023-03-01T05:50:33;0.60;99.90
4518;DHT22;2271;49.464;11.070;2023-03-01T05:53:02;0.60;99.90
4518;DHT22;2271;49.464;11.070;2023-03-01T05:55:30;0.70;99.90
4518;DHT22;2271;49.464;11.070;2023-03-01T05:57:59;0.80;99.90
4518;DHT22;2271;49.464;11.070;2023-03-01T06:00:25;0.80;99.90
4518;DHT22;2271;49.464;11.070;2023-03-01T06:02:50;0.90;99.90
4518;DHT22;2271;49.464;11.070;2023-03-01T06:05:17;0.80;99.90
4518;DHT22;2271;49.464;11.070;2023-03-01T06:07:43;0.90;99.90
4518;DHT22;2271;49.464;11.070;2023-03-01T06:10:11;1.00;99.90
4518;DHT22;2271;49.464;11.070;2023-03-01T06:12:38;1.20;99.90
4518;DHT22;2271;49.464;11.070;2023-03-01T06:15:05;1.30;99.90
4518;DHT22;2271;49.464;11.070;2023-03-01T06:17:33;1.20;99.90
4518;DHT22;2271;49.464;11.070;2023-03-01T06:20:08;1.20;99.90
4518;DHT22;2271;49.464;11.070;2023-03-01T06:22:34;0.90;99.90
4518;DHT22;2271;49.464;11.070;2023-03-01T06:24:59;1.10;99.90
4518;DHT22;2271;49.464;11.070;2023-03-01T06:27:25;1.20;99.90
4518;DHT22;2271;49.464;11.070;2023-03-01T06:29:51;1.20;99.90
4518;DHT22;2271;49.464;11.070;2023-03-01T06:32:16;1.20;99.90
4518;DHT22;2271;49.464;11.070;2023-03-01T06:34:42;1.20;99.90
4518;DHT22;2271;49.464;11.070;2023-03-01T06:37:08;1.30;99.90
4518;DHT22;2271;49.464;11.070;2023-03-01T06:39:34;1.60;99.90
4518;DHT22;2271;49.464;11.070;2023-03-01T06:42:00;4.40;99.90
4518;DHT22;2271;49.464;11.070;2023-03-01T06:44:26;6.70;99.90
4518;DHT22;2271;49.464;11.070;2023-03-01T06:46:51;8.30;99.90
4518;DHT22;2271;49.464;11.070;2023-03-01T06:49:17;7.40;99.90
4518;DHT22;2271;49.464;11.070;2023-03-01T06:51:43;5.70;99.90
4518;DHT22;2271;49.464;11.070;2023-03-01T06:54:09;4.20;99.90
4518;DHT22;2271;49.464;11.070;2023-03-01T06:56:35;3.60;99.90
4518;DHT22;2271;49.464;11.070;2023-03-01T06:59:01;3.10;99.90
4518;DHT22;2271;49.464;11.070;2023-03-01T07:01:28;2.90;99.90
4518;DHT22;2271;49.464;11.070;2023-03-01T07:03:54;2.60;99.90
4518;DHT22;2271;49.464;11.070;2023-03-01T07:06:20;2.50;99.90
4518;DHT22;2271;49.464;11.070;2023-03-01T07:08:46;2.40;99.90
4518;DHT22;2271;49.464;11.070;2023-03-01T07:11:12;2.20;99.90
4518;DHT22;2271;49.464;11.070;2023-03-01T07:13:38;2.20;99.90
4518;DHT22;2271;49.464;11.070;2023-03-01T07:16:03;2.10;99.90
4518;DHT22;2271;49.464;11.070;2023-03-01T07:18:29;2.20;99.90
4518;DHT22;2271;49.464;11.070;2023-03-01T07:20:55;2.10;99.90
4518;DHT22;2271;49.464;11.070;2023-03-01T07:23:20;2.10;99.90
4518;DHT22;2271;49.464;11.070;2023-03-01T07:25:53;1.90;99.90
4518;DHT22;2271;49.464;11.070;2023-03-01T07:28:19;2.20;99.90
4518;DHT22;2271;49.464;11.070;2023-03-01T07:30:44;2.10;99.90
4518;DHT22;2271;49.464;11.070;2023-03-01T07:33:10;2.10;99.90
4518;DHT22;2271;49.464;11.070;2023-03-01T07:35:36;2.00;99.90
4518;DHT22;2271;49.464;11.070;2023-03-01T07:38:01;1.90;99.90
4518;DHT22;2271;49.464;11.070;2023-03-01T07:40:27;2.10;99.90
4518;DHT22;2271;49.464;11.070;2023-03-01T07:42:56;2.00;99.90
4518;DHT22;2271;49.464;11.070;2023-03-01T07:45:23;1.70;99.90
4518;DHT22;2271;49.464;11.070;2023-03-01T07:47:53;1.80;99.90
4518;DHT22;2271;49.464;11.070;2023-03-01T07:50:19;1.80;99.90
4518;DHT22;2271;49.464;11.070;2023-03-01T07:52:46;2.00;99.90
4518;DHT22;2271;49.464;11.070;2023-03-01T07:55:11;2.10;99.90
4518;DHT22;2271;49.464;11.070;2023-03-01T07:57:37;1.80;99.90
4518;DHT22;2271;49.464;11.070;2023-03-01T08:00:04;2.00;99.90
4518;DHT22;2271;49.464;11.070;2023-03-01T08:02:30;2.10;99.90
4518;DHT22;2271;49.464;11.070;2023-03-01T08:04:56;2.10;99.90
4518;DHT22;2271;49.464;11.070;2023-03-01T08:07:21;2.20;99.90
4518;DHT22;2271;49.464;11.070;2023-03-01T08:09:47;2.20;99.90
4518;DHT22;2271;49.464;11.070;2023-03-01T08:12:12;2.20;99.90
4518;DHT22;2271;49.464;11.070;2023-03-01T08:14:38;2.10;99.90
4518;DHT22;2271;49.464;11.070;2023-03-01T08:17:04;2.20;99.90
4518;DHT22;2271;49.464;11.070;2023-03-01T08:19:29;2.10;99.90
4518;DHT22;2271;49.464;11.070;2023-03-01T08:21:55;2.10;99.90
4518;DHT22;2271;49.464;11.070;2023-03-01T08:24:23;2.20;99.90
4518;DHT22;2271;49.464;11.070;2023-03-01T08:26:49;2.10;99.90
4518;DHT22;2271;49.464;11.070;2023-03-01T08:29:15;2.20;99.90
4518;DHT22;2271;49.464;11.070;2023-03-01T08:31:40;2.20;99.90
4518;DHT22;2271;49.464;11.070;2023-03-01T08:34:12;2.20;99.90
4518;DHT22;2271;49.464;11.070;2023-03-01T08:36:41;2.30;99.90
4518;DHT22;2271;49.464;11.070;2023-03-01T08:39:09;2.40;99.90
4518;DHT22;2271;49.464;11.070;2023-03-01T08:41:35;2.40;99.90
4518;DHT22;2271;49.464;11.070;2023-03-01T08:44:01;2.50;99.90
4518;DHT22;2271;49.464;11.070;2023-03-01T08:46:31;2.50;99.90
4518;DHT22;2271;49.464;11.070;2023-03-01T08:48:57;2.40;99.90
4518;DHT22;2271;49.464;11.070;2023-03-01T08:51:23;2.40;99.90
4518;DHT22;2271;49.464;11.070;2023-03-01T08:53:49;2.50;99.90
4518;DHT22;2271;49.464;11.070;2023-03-01T08:56:16;2.60;99.90
4518;DHT22;2271;49.464;11.070;2023-03-01T08:58:48;2.70;99.90
4518;DHT22;2271;49.464;11.070;2023-03-01T09:01:18;2.90;99.90
4518;DHT22;2271;49.464;11.070;2023-03-01T09:03:44;3.00;99.90
4518;DHT22;2271;49.464;11.070;2023-03-01T09:06:11;3.00;99.90
4518;DHT22;2271;49.464;11.070;2023-03-01T09:08:42;3.10;99.90
4518;DHT22;2271;49.464;11.070;2023-03-01T09:11:10;3.20;99.90
4518;DHT22;2271;49.464;11.070;2023-03-01T09:13:36;3.20;99.90
4518;DHT22;2271;49.464;11.070;2023-03-01T09:16:03;3.10;99.90
4518;DHT22;2271;49.464;11.070;2023-03-01T09:18:30;3.10;99.90
4518;DHT22;2271;49.464;11.070;2023-03-01T09:21:05;3.10;99.90
4518;DHT22;2271;49.464;11.070;2023-03-01T09:23:39;3.10;99.90
4518;DHT22;2271;49.464;11.070;2023-03-01T09:26:06;3.10;99.90
4518;DHT22;2271;49.464;11.070;2023-03-01T09:28:33;3.30;99.90
4518;DHT22;2271;49.464;11.070;2023-03-01T09:31:00;3.30;99.90
4518;DHT22;2271;49.464;11.070;2023-03-01T09:33:28;3.60;99.90
4518;DHT22;2271;49.464;11.070;2023-03-01T09:36:02;4.40;99.90
4518;DHT22;2271;49.464;11.070;2023-03-01T09:38:29;5.00;99.90
4518;DHT22;2271;49.464;11.070;2023-03-01T09:40:55;5.30;99.90
4518;DHT22;2271;49.464;11.070;2023-03-01T09:43:44;5.00;99.90
4518;DHT22;2271;49.464;11.070;2023-03-01T09:46:13;4.70;99.90
4518;DHT22;2271;49.464;11.070;2023-03-01T09:48:45;4.60;99.90
4518;DHT22;2271;49.464;11.070;2023-03-01T09:51:18;4.30;99.90
4518;DHT22;2271;49.464;11.070;2023-03-01T09:53:45;3.90;99.90
4518;DHT22;2271;49.464;11.070;2023-03-01T10:01:35;4.40;99.90
4518;DHT22;2271;49.464;11.070;2023-03-01T10:04:28;4.60;99.90
4518;DHT22;2271;49.464;11.070;2023-03-01T10:09:38;5.10;99.90
4518;DHT22;2271;49.464;11.070;2023-03-01T10:12:10;5.30;99.90
4518;DHT22;2271;49.464;11.070;2023-03-01T10:17:34;5.80;99.90
4518;DHT22;2271;49.464;11.070;2023-03-01T10:23:16;6.10;99.90
4518;DHT22;2271;49.464;11.070;2023-03-01T10:25:51;6.20;99.90
4518;DHT22;2271;49.464;11.070;2023-03-01T10:28:59;6.10;99.90
4518;DHT22;2271;49.464;11.070;2023-03-01T10:31:40;6.00;99.90
4518;DHT22;2271;49.464;11.070;2023-03-01T10:34:11;6.10;99.90
4518;DHT22;2271;49.464;11.070;2023-03-01T10:36:38;6.00;99.90
4518;DHT22;2271;49.464;11.070;2023-03-01T10:39:13;6.10;99.90
4518;DHT22;2271;49.464;11.070;2023-03-01T10:44:39;6.60;99.90
4518;DHT22;2271;49.464;11.070;2023-03-01T10:52:58;7.10;99.90
4518;DHT22;2271;49.464;11.070;2023-03-01T10:55:33;7.10;99.90
4518;DHT22;2271;49.464;11.070;2023-03-01T10:58:26;7.10;99.90
4518;DHT22;2271;49.464;11.070;2023-03-01T11:03:38;7.30;99.90
4518;DHT22;2271;49.464;11.070;2023-03-01T11:06:05;7.60;99.90
4518;DHT22;2271;49.464;11.070;2023-03-01T11:08:46;7.60;99.90
4518;DHT22;2271;49.464;11.070;2023-03-01T11:11:21;7.50;99.90
4518;DHT22;2271;49.464;11.070;2023-03-01T11:13:57;7.80;99.90
4518;DHT22;2271;49.464;11.070;2023-03-01T11:16:34;8.10;99.90
4518;DHT22;2271;49.464;11.070;2023-03-01T11:19:21;8.30;99.90
4518;DHT22;2271;49.464;11.070;2023-03-01T11:24:17;8.60;99.90
4518;DHT22;2271;49.464;11.070;2023-03-01T11:26:50;8.50;99.90
4518;DHT22;2271;49.464;11.070;2023-03-01T11:29:32;8.10;99.90
4518;DHT22;2271;49.464;11.070;2023-03-01T11:32:02;8.20;99.90
4518;DHT22;2271;49.464;11.070;2023-03-01T11:37:36;8.00;99.90
4518;DHT22;2271;49.464;11.070;2023-03-01T11:40:25;8.00;99.90
4518;DHT22;2271;49.464;11.070;2023-03-01T12:02:57;9.50;99.90
4518;DHT22;2271;49.464;11.070;2023-03-01T12:08:20;9.00;99.90
4518;DHT22;2271;49.464;11.070;2023-03-01T12:30:15;9.10;99.90
4518;DHT22;2271;49.464;11.070;2023-03-01T12:33:06;9.30;99.90
4518;DHT22;2271;49.464;11.070;2023-03-01T12:38:50;9.50;99.90
4518;DHT22;2271;49.464;11.070;2023-03-01T12:41:46;9.10;99.90
4518;DHT22;2271;49.464;11.070;2023-03-01T12:44:35;9.10;99.90
4518;DHT22;2271;49.464;11.070;2023-03-01T12:49:56;9.30;99.90
4518;DHT22;2271;49.464;11.070;2023-03-01T12:52:37;9.40;99.90
4518;DHT22;2271;49.464;11.070;2023-03-01T12:55:13;9.50;99.90
4518;DHT22;2271;49.464;11.070;2023-03-01T12:57:49;9.70;99.90
4518;DHT22;2271;49.464;11.070;2023-03-01T13:05:56;9.60;99.90
4518;DHT22;2271;49.464;11.070;2023-03-01T13:08:29;9.70;99.90
4518;DHT22;2271;49.464;11.070;2023-03-01T13:11:06;9.80;99.90
4518;DHT22;2271;49.464;11.070;2023-03-01T13:13:36;9.80;99.90
4518;DHT22;2271;49.464;11.070;2023-03-01T13:18:48;9.90;99.90
4518;DHT22;2271;49.464;11.070;2023-03-01T13:21:30;9.70;99.90
4518;DHT22;2271;49.464;11.070;2023-03-01T13:23:56;9.80;99.90
4518;DHT22;2271;49.464;11.070;2023-03-01T13:26:21;9.90;99.90
4518;DHT22;2271;49.464;11.070;2023-03-01T13:28:52;9.90;99.90
4518;DHT22;2271;49.464;11.070;2023-03-01T13:33:54;9.70;99.90
4518;DHT22;2271;49.464;11.070;2023-03-01T13:36:47;9.70;99.90
4518;DHT22;2271;49.464;11.070;2023-03-01T13:39:30;9.70;99.90
4518;DHT22;2271;49.464;11.070;2023-03-01T13:41:58;9.70;99.90
4518;DHT22;2271;49.464;11.070;2023-03-01T13:44:37;9.70;99.90
4518;DHT22;2271;49.464;11.070;2023-03-01T13:49:55;9.70;99.90
4518;DHT22;2271;49.464;11.070;2023-03-01T13:54:57;10.00;99.90
4518;DHT22;2271;49.464;11.070;2023-03-01T13:57:28;10.10;99.90
4518;DHT22;2271;49.464;11.070;2023-03-01T13:59:55;10.10;99.90
4518;DHT22;2271;49.464;11.070;2023-03-01T14:02:20;10.00;99.90
4518;DHT22;2271;49.464;11.070;2023-03-01T14:04:56;10.00;99.90
4518;DHT22;2271;49.464;11.070;2023-03-01T14:07:24;10.00;99.90
4518;DHT22;2271;49.464;11.070;2023-03-01T14:09:58;10.10;99.90
4518;DHT22;2271;49.464;11.070;2023-03-01T14:15:27;10.10;99.90
4518;DHT22;2271;49.464;11.070;2023-03-01T14:18:25;10.00;99.90
4518;DHT22;2271;49.464;11.070;2023-03-01T14:20:55;9.80;99.90
4518;DHT22;2271;49.464;11.070;2023-03-01T14:23:22;9.60;99.90
4518;DHT22;2271;49.464;11.070;2023-03-01T14:25:54;9.60;99.90
4518;DHT22;2271;49.464;11.070;2023-03-01T14:28:29;9.50;99.90
4518;DHT22;2271;49.464;11.070;2023-03-01T14:30:58;9.60;99.90
4518;DHT22;2271;49.464;11.070;2023-03-01T14:36:05;9.70;99.90
4518;DHT22;2271;49.464;11.070;2023-03-01T14:38:37;9.70;99.90
4518;DHT22;2271;49.464;11.070;2023-03-01T14:41:15;9.80;99.90
4518;DHT22;2271;49.464;11.070;2023-03-01T14:43:45;9.80;99.90
4518;DHT22;2271;49.464;11.070;2023-03-01T14:46:34;9.60;99.90
4518;DHT22;2271;49.464;11.070;2023-03-01T14:51:40;9.30;99.90
4518;DHT22;2271;49.464;11.070;2023-03-01T14:54:40;9.30;99.90
4518;DHT22;2271;49.464;11.070;2023-03-01T14:57:14;9.30;99.90
4518;DHT22;2271;49.464;11.070;2023-03-01T14:59:41;9.30;99.90
4518;DHT22;2271;49.464;11.070;2023-03-01T15:02:17;9.40;99.90
4518;DHT22;2271;49.464;11.070;2023-03-01T15:04:51;9.30;99.90
4518;DHT22;2271;49.464;11.070;2023-03-01T15:07:17;9.20;99.90
4518;DHT22;2271;49.464;11.070;2023-03-01T15:09:44;9.20;99.90
4518;DHT22;2271;49.464;11.070;2023-03-01T15:14:55;9.00;99.90
4518;DHT22;2271;49.464;11.070;2023-03-01T15:17:36;9.00;99.90
4518;DHT22;2271;49.464;11.070;2023-03-01T15:20:16;9.60;99.90
4518;DHT22;2271;49.464;11.070;2023-03-01T15:22:45;10.50;99.90
4518;DHT22;2271;49.464;11.070;2023-03-01T15:25:16;10.00;99.90
4518;DHT22;2271;49.464;11.070;2023-03-01T15:27:46;9.40;99.90
4518;DHT22;2271;49.464;11.070;2023-03-01T15:32:45;9.00;99.90
4518;DHT22;2271;49.464;11.070;2023-03-01T15:35:40;8.90;99.90
4518;DHT22;2271;49.464;11.070;2023-03-01T15:40:59;8.60;99.90
4518;DHT22;2271;49.464;11.070;2023-03-01T15:43:43;8.60;99.90
4518;DHT22;2271;49.464;11.070;2023-03-01T15:48:55;8.40;99.90
4518;DHT22;2271;49.464;11.070;2023-03-01T15:51:51;8.40;99.90
4518;DHT22;2271;49.464;11.070;2023-03-01T15:54:21;8.60;99.90
4518;DHT22;2271;49.464;11.070;2023-03-01T15:56:47;8.60;99.90
4518;DHT22;2271;49.464;11.070;2023-03-01T15:59:13;8.60;99.90
4518;DHT22;2271;49.464;11.070;2023-03-01T16:01:40;8.70;99.90
4518;DHT22;2271;49.464;11.070;2023-03-01T16:04:06;8.60;99.90
4518;DHT22;2271;49.464;11.070;2023-03-01T16:06:31;8.60;99.90
4518;DHT22;2271;49.464;11.070;2023-03-01T16:08:57;8.40;99.90
4518;DHT22;2271;49.464;11.070;2023-03-01T16:11:22;8.40;99.90
4518;DHT22;2271;49.464;11.070;2023-03-01T16:13:49;8.40;99.90
4518;DHT22;2271;49.464;11.070;2023-03-01T16:16:16;8.30;99.90
4518;DHT22;2271;49.464;11.070;2023-03-01T16:18:46;8.20;99.90
4518;DHT22;2271;49.464;11.070;2023-03-01T16:21:14;8.00;99.90
4518;DHT22;2271;49.464;11.070;2023-03-01T16:23:42;8.00;99.90
4518;DHT22;2271;49.464;11.070;2023-03-01T16:26:09;8.10;99.90
4518;DHT22;2271;49.464;11.070;2023-03-01T16:28:35;8.00;99.90
4518;DHT22;2271;49.464;11.070;2023-03-01T16:31:00;8.00;99.90
4518;DHT22;2271;49.464;11.070;2023-03-01T16:33:27;8.10;99.90
4518;DHT22;2271;49.464;11.070;2023-03-01T16:35:52;8.00;99.90
4518;DHT22;2271;49.464;11.070;2023-03-01T16:38:18;8.10;99.90
4518;DHT22;2271;49.464;11.070;2023-03-01T16:40:48;8.10;99.90
4518;DHT22;2271;49.464;11.070;2023-03-01T16:43:14;8.10;99.90
4518;DHT22;2271;49.464;11.070;2023-03-01T16:45:39;8.10;99.90
4518;DHT22;2271;49.464;11.070;2023-03-01T16:48:06;8.10;99.90
4518;DHT22;2271;49.464;11.070;2023-03-01T16:50:31;8.00;99.90
4518;DHT22;2271;49.464;11.070;2023-03-01T16:52:57;8.00;99.90
4518;DHT22;2271;49.464;11.070;2023-03-01T16:55:23;8.00;99.90
4518;DHT22;2271;49.464;11.070;2023-03-01T16:57:49;8.00;99.90
4518;DHT22;2271;49.464;11.070;2023-03-01T17:00:15;7.90;99.90
4518;DHT22;2271;49.464;11.070;2023-03-01T17:02:41;8.00;99.90
4518;DHT22;2271;49.464;11.070;2023-03-01T17:05:08;7.90;99.90
4518;DHT22;2271;49.464;11.070;2023-03-01T17:07:35;7.80;99.90
4518;DHT22;2271;49.464;11.070;2023-03-01T17:10:02;7.60;99.90
4518;DHT22;2271;49.464;11.070;2023-03-01T17:12:28;7.60;99.90
4518;DHT22;2271;49.464;11.070;2023-03-01T17:14:54;7.50;99.90
4518;DHT22;2271;49.464;11.070;2023-03-01T17:17:20;7.50;99.90
4518;DHT22;2271;49.464;11.070;2023-03-01T17:19:45;7.50;99.90
4518;DHT22;2271;49.464;11.070;2023-03-01T17:22:11;7.40;99.90
4518;DHT22;2271;49.464;11.070;2023-03-01T17:24:39;7.40;99.90
4518;DHT22;2271;49.464;11.070;2023-03-01T17:27:06;7.40;99.90
4518;DHT22;2271;49.464;11.070;2023-03-01T17:29:32;7.50;99.90
4518;DHT22;2271;49.464;11.070;2023-03-01T17:31:58;7.50;99.90
4518;DHT22;2271;49.464;11.070;2023-03-01T17:34:24;7.50;99.90
4518;DHT22;2271;49.464;11.070;2023-03-01T17:36:50;7.60;99.90
4518;DHT22;2271;49.464;11.070;2023-03-01T17:39:17;7.40;99.90
4518;DHT22;2271;49.464;11.070;2023-03-01T17:42:06;7.20;99.90
4518;DHT22;2271;49.464;11.070;2023-03-01T17:44:32;7.00;99.90
4518;DHT22;2271;49.464;11.070;2023-03-01T17:46:59;6.90;99.90
4518;DHT22;2271;49.464;11.070;2023-03-01T17:49:24;7.00;99.90
4518;DHT22;2271;49.464;11.070;2023-03-01T17:51:50;6.90;99.90
4518;DHT22;2271;49.464;11.070;2023-03-01T17:54:16;7.00;99.90
4518;DHT22;2271;49.464;11.070;2023-03-01T17:56:41;6.90;99.90
4518;DHT22;2271;49.464;11.070;2023-03-01T17:59:07;6.90;99.90
4518;DHT22;2271;49.464;11.070;2023-03-01T18:01:33;6.90;99.90
4518;DHT22;2271;49.464;11.070;2023-03-01T18:04:00;7.00;99.90
4518;DHT22;2271;49.464;11.070;2023-03-01T18:06:27;7.00;99.90
4518;DHT22;2271;49.464;11.070;2023-03-01T18:08:53;6.90;99.90
4518;DHT22;2271;49.464;11.070;2023-03-01T18:11:21;6.90;99.90
4518;DHT22;2271;49.464;11.070;2023-03-01T18:13:48;6.80;99.90
4518;DHT22;2271;49.464;11.070;2023-03-01T18:16:16;6.60;99.90